N580JS KTEX-KLAX
Flight info
| Callsign | N580JS |
|---|---|
| Flight time | 1h 49m |
| Altitude | 34000 |
| Route | ETL DVC CORKR SHIVA Q168 FNNDA HLYWD1 |
| Aircraft | E50P/L-SBDFGRWY/LB2 |
Departure
| Time | 2026-05-08 18:33 |
|---|---|
| Airport | Telluride Regional Airport (KTEX) |
Arrival
| Time | 2026-05-08 20:22 |
|---|---|
| Airport | Los Angeles International Airport (KLAX) |
| Time | Latitude | Longitude | Altitude | Speed | Heading |
|---|---|---|---|---|---|
| 2026-05-08 18:10 | 37.95416 | -107.90201 | 9053 ft | 0 kts | 14° |
| 2026-05-08 18:26 | 37.95417 | -107.90201 | 9065 ft | 1 kts | 349° |
| 2026-05-08 18:26 | 37.95419 | -107.90210 | 9062 ft | 1 kts | 230° |
| 2026-05-08 18:27 | 37.95403 | -107.90215 | 9054 ft | 4 kts | 188° |
| 2026-05-08 18:27 | 37.95385 | -107.90217 | 9054 ft | 4 kts | 184° |
| 2026-05-08 18:27 | 37.95355 | -107.90200 | 9053 ft | 5 kts | 117° |
| 2026-05-08 18:27 | 37.95345 | -107.90157 | 9053 ft | 5 kts | 104° |
| 2026-05-08 18:28 | 37.95336 | -107.90116 | 9055 ft | 5 kts | 104° |
| 2026-05-08 18:28 | 37.95327 | -107.90074 | 9053 ft | 6 kts | 107° |
| 2026-05-08 18:28 | 37.95317 | -107.90029 | 9055 ft | 6 kts | 104° |
| 2026-05-08 18:28 | 37.95303 | -107.89966 | 9058 ft | 9 kts | 105° |
| 2026-05-08 18:29 | 37.95290 | -107.89902 | 9061 ft | 6 kts | 105° |
| 2026-05-08 18:29 | 37.95283 | -107.89866 | 9062 ft | 3 kts | 104° |
| 2026-05-08 18:29 | 37.95274 | -107.89826 | 9064 ft | 6 kts | 105° |
| 2026-05-08 18:29 | 37.95261 | -107.89765 | 9067 ft | 8 kts | 104° |
| 2026-05-08 18:30 | 37.95249 | -107.89707 | 9069 ft | 6 kts | 105° |
| 2026-05-08 18:30 | 37.95233 | -107.89673 | 9071 ft | 3 kts | 145° |
| 2026-05-08 18:30 | 37.95202 | -107.89669 | 9072 ft | 6 kts | 195° |
| 2026-05-08 18:30 | 37.95158 | -107.89684 | 9071 ft | 7 kts | 195° |
| 2026-05-08 18:31 | 37.95136 | -107.89707 | 9069 ft | 4 kts | 261° |
| 2026-05-08 18:31 | 37.95136 | -107.89713 | 9069 ft | 0 kts | 289° |
| 2026-05-08 18:31 | 37.95162 | -107.89835 | 9063 ft | 38 kts | 284° |
| 2026-05-08 18:32 | 37.95269 | -107.90348 | 9043 ft | 80 kts | 285° |
| 2026-05-08 18:32 | 37.95443 | -107.91174 | 9042 ft | 109 kts | 284° |
| 2026-05-08 18:32 | 37.95647 | -107.92113 | 9276 ft | 107 kts | 283° |
| 2026-05-08 18:32 | 37.95842 | -107.93025 | 9635 ft | 109 kts | 279° |
| 2026-05-08 18:33 | 37.96036 | -107.93968 | 9944 ft | 111 kts | 288° |
| 2026-05-08 18:33 | 37.96219 | -107.94877 | 10404 ft | 105 kts | 282° |
| 2026-05-08 18:33 | 37.96350 | -107.95891 | 10508 ft | 126 kts | 285° |
| 2026-05-08 18:33 | 37.96602 | -107.96975 | 10878 ft | 132 kts | 290° |
| 2026-05-08 18:34 | 37.96927 | -107.98076 | 11030 ft | 134 kts | 291° |
| 2026-05-08 18:34 | 37.97196 | -107.99202 | 11490 ft | 133 kts | 289° |
| 2026-05-08 18:34 | 37.97474 | -108.00298 | 12011 ft | 129 kts | 291° |
| 2026-05-08 18:34 | 37.97732 | -108.01400 | 12507 ft | 132 kts | 287° |
| 2026-05-08 18:35 | 37.98045 | -108.02502 | 13064 ft | 131 kts | 295° |
| 2026-05-08 18:35 | 37.98344 | -108.03596 | 13640 ft | 132 kts | 289° |
| 2026-05-08 18:35 | 37.98621 | -108.04737 | 14060 ft | 137 kts | 290° |
| 2026-05-08 18:35 | 37.98904 | -108.05891 | 14484 ft | 137 kts | 291° |
| 2026-05-08 18:36 | 37.99200 | -108.07022 | 14949 ft | 135 kts | 291° |
| 2026-05-08 18:36 | 37.99492 | -108.08169 | 15339 ft | 139 kts | 291° |
| 2026-05-08 18:36 | 37.99788 | -108.09310 | 15780 ft | 136 kts | 291° |
| 2026-05-08 18:36 | 38.00085 | -108.10470 | 16210 ft | 137 kts | 292° |
| 2026-05-08 18:37 | 38.00381 | -108.11610 | 16615 ft | 139 kts | 291° |
| 2026-05-08 18:37 | 38.00680 | -108.12790 | 17009 ft | 141 kts | 291° |
| 2026-05-08 18:37 | 38.00988 | -108.13970 | 17427 ft | 141 kts | 291° |
| 2026-05-08 18:37 | 38.01288 | -108.15161 | 17845 ft | 142 kts | 291° |
| 2026-05-08 18:38 | 38.01597 | -108.16360 | 18251 ft | 144 kts | 291° |
| 2026-05-08 18:38 | 38.01909 | -108.17568 | 18640 ft | 144 kts | 291° |
| 2026-05-08 18:38 | 38.02215 | -108.18780 | 19023 ft | 144 kts | 291° |
| 2026-05-08 18:38 | 38.02529 | -108.19989 | 19414 ft | 145 kts | 291° |
| 2026-05-08 18:39 | 38.02834 | -108.21204 | 19802 ft | 145 kts | 291° |
| 2026-05-08 18:39 | 38.03146 | -108.22421 | 20152 ft | 145 kts | 291° |
| 2026-05-08 18:39 | 38.03458 | -108.23639 | 20515 ft | 145 kts | 291° |
| 2026-05-08 18:39 | 38.03758 | -108.24866 | 20894 ft | 147 kts | 285° |
| 2026-05-08 18:40 | 38.03766 | -108.26174 | 21241 ft | 151 kts | 268° |
| 2026-05-08 18:40 | 38.03482 | -108.27473 | 21622 ft | 156 kts | 252° |
| 2026-05-08 18:40 | 38.03024 | -108.28727 | 21999 ft | 156 kts | 256° |
| 2026-05-08 18:40 | 38.02622 | -108.30010 | 22377 ft | 157 kts | 254° |
| 2026-05-08 18:41 | 38.02175 | -108.31280 | 22757 ft | 158 kts | 254° |
| 2026-05-08 18:41 | 38.01745 | -108.32561 | 23132 ft | 158 kts | 254° |
| 2026-05-08 18:41 | 38.01303 | -108.33841 | 23511 ft | 159 kts | 254° |
| 2026-05-08 18:41 | 38.00865 | -108.35129 | 23819 ft | 160 kts | 254° |
| 2026-05-08 18:42 | 38.00422 | -108.36423 | 24124 ft | 160 kts | 254° |
| 2026-05-08 18:42 | 37.99980 | -108.37723 | 24428 ft | 161 kts | 254° |
| 2026-05-08 18:42 | 37.99530 | -108.39034 | 24718 ft | 163 kts | 254° |
| 2026-05-08 18:42 | 37.99081 | -108.40355 | 25039 ft | 164 kts | 255° |
| 2026-05-08 18:43 | 37.98625 | -108.41681 | 25352 ft | 165 kts | 254° |
| 2026-05-08 18:43 | 37.98170 | -108.43017 | 25664 ft | 166 kts | 254° |
| 2026-05-08 18:43 | 37.97706 | -108.44364 | 25960 ft | 167 kts | 253° |
| 2026-05-08 18:43 | 37.97245 | -108.45720 | 26280 ft | 168 kts | 254° |
| 2026-05-08 18:44 | 37.96774 | -108.47085 | 26598 ft | 170 kts | 254° |
| 2026-05-08 18:44 | 37.96306 | -108.48459 | 26916 ft | 170 kts | 254° |
| 2026-05-08 18:44 | 37.95830 | -108.49841 | 27230 ft | 172 kts | 254° |
| 2026-05-08 18:44 | 37.95354 | -108.51235 | 27545 ft | 173 kts | 255° |
| 2026-05-08 18:45 | 37.94871 | -108.52637 | 27866 ft | 174 kts | 254° |
| 2026-05-08 18:45 | 37.94387 | -108.54050 | 28186 ft | 175 kts | 255° |
| 2026-05-08 18:45 | 37.93898 | -108.55472 | 28504 ft | 177 kts | 254° |
| 2026-05-08 18:45 | 37.93405 | -108.56904 | 28809 ft | 178 kts | 255° |
| 2026-05-08 18:46 | 37.92910 | -108.58344 | 29097 ft | 179 kts | 254° |
| 2026-05-08 18:46 | 37.92410 | -108.59794 | 29404 ft | 180 kts | 255° |
| 2026-05-08 18:46 | 37.91910 | -108.61252 | 29706 ft | 181 kts | 254° |
| 2026-05-08 18:46 | 37.91402 | -108.62721 | 30007 ft | 182 kts | 255° |
| 2026-05-08 18:47 | 37.90896 | -108.64198 | 30260 ft | 184 kts | 255° |
| 2026-05-08 18:47 | 37.90381 | -108.65683 | 30509 ft | 185 kts | 255° |
| 2026-05-08 18:47 | 37.89868 | -108.67179 | 30762 ft | 186 kts | 255° |
| 2026-05-08 18:47 | 37.89346 | -108.68682 | 31011 ft | 187 kts | 255° |
| 2026-05-08 18:48 | 37.88827 | -108.70193 | 31271 ft | 187 kts | 255° |
| 2026-05-08 18:48 | 37.88302 | -108.71702 | 31523 ft | 187 kts | 255° |
| 2026-05-08 18:48 | 37.87790 | -108.73192 | 31774 ft | 187 kts | 256° |
| 2026-05-08 18:48 | 37.87265 | -108.74703 | 32021 ft | 187 kts | 256° |
| 2026-05-08 18:49 | 37.86738 | -108.76234 | 32267 ft | 187 kts | 256° |
| 2026-05-08 18:49 | 37.86219 | -108.77723 | 32498 ft | 188 kts | 256° |
| 2026-05-08 18:49 | 37.85697 | -108.79235 | 32714 ft | 188 kts | 256° |
| 2026-05-08 18:49 | 37.85172 | -108.80750 | 32956 ft | 188 kts | 256° |
| 2026-05-08 18:50 | 37.84645 | -108.82272 | 33161 ft | 189 kts | 256° |
| 2026-05-08 18:50 | 37.84118 | -108.83789 | 33411 ft | 188 kts | 256° |
| 2026-05-08 18:50 | 37.83593 | -108.85300 | 33627 ft | 188 kts | 256° |
| 2026-05-08 18:50 | 37.83069 | -108.86811 | 33849 ft | 188 kts | 256° |
| 2026-05-08 18:51 | 37.82540 | -108.88341 | 33936 ft | 195 kts | 256° |
| 2026-05-08 18:51 | 37.81984 | -108.89960 | 33943 ft | 207 kts | 255° |
| 2026-05-08 18:51 | 37.81387 | -108.91672 | 33953 ft | 219 kts | 255° |
| 2026-05-08 18:51 | 37.80736 | -108.93478 | 33954 ft | 234 kts | 249° |
| 2026-05-08 18:52 | 37.79853 | -108.95296 | 33954 ft | 249 kts | 246° |
| 2026-05-08 18:52 | 37.78940 | -108.97213 | 33957 ft | 260 kts | 247° |
| 2026-05-08 18:52 | 37.78003 | -108.99225 | 33955 ft | 271 kts | 246° |
| 2026-05-08 18:52 | 37.77014 | -109.01314 | 33956 ft | 282 kts | 246° |
| 2026-05-08 18:53 | 37.75988 | -109.03481 | 33952 ft | 292 kts | 246° |
| 2026-05-08 18:53 | 37.74925 | -109.05720 | 33953 ft | 302 kts | 245° |
| 2026-05-08 18:53 | 37.72709 | -109.10399 | 33970 ft | 319 kts | 245° |
| 2026-05-08 18:54 | 37.70377 | -109.15313 | 33994 ft | 333 kts | 244° |
| 2026-05-08 18:54 | 37.67951 | -109.20417 | 34024 ft | 345 kts | 244° |
| 2026-05-08 18:55 | 37.64598 | -109.27456 | 34064 ft | 357 kts | 244° |
| 2026-05-08 18:56 | 37.62018 | -109.32867 | 34098 ft | 363 kts | 244° |
| 2026-05-08 18:56 | 37.59395 | -109.38355 | 34121 ft | 367 kts | 244° |
| 2026-05-08 18:57 | 37.56742 | -109.43899 | 34123 ft | 371 kts | 244° |
| 2026-05-08 18:57 | 37.54062 | -109.49488 | 34117 ft | 374 kts | 244° |
| 2026-05-08 18:58 | 37.51364 | -109.55106 | 34120 ft | 376 kts | 243° |
| 2026-05-08 18:58 | 37.48648 | -109.60752 | 34085 ft | 378 kts | 243° |
| 2026-05-08 18:59 | 37.45936 | -109.66381 | 34047 ft | 379 kts | 243° |
| 2026-05-08 18:59 | 37.44566 | -109.69219 | 33921 ft | 380 kts | 243° |
| 2026-05-08 18:59 | 37.43193 | -109.72061 | 33905 ft | 380 kts | 243° |
| 2026-05-08 19:00 | 37.40443 | -109.77749 | 33908 ft | 381 kts | 243° |
| 2026-05-08 19:00 | 37.37666 | -109.83484 | 33910 ft | 382 kts | 243° |
| 2026-05-08 19:01 | 37.34900 | -109.89183 | 33906 ft | 382 kts | 243° |
| 2026-05-08 19:01 | 37.32148 | -109.94847 | 33908 ft | 383 kts | 243° |
| 2026-05-08 19:02 | 37.29371 | -110.00552 | 33905 ft | 382 kts | 243° |
| 2026-05-08 19:02 | 37.26987 | -110.06474 | 33907 ft | 380 kts | 249° |
| 2026-05-08 19:03 | 37.24188 | -110.12152 | 33905 ft | 385 kts | 238° |
| 2026-05-08 19:03 | 37.21091 | -110.17626 | 33891 ft | 383 kts | 244° |
| 2026-05-08 19:04 | 37.18492 | -110.23443 | 33888 ft | 383 kts | 243° |
| 2026-05-08 19:04 | 37.15602 | -110.29077 | 33891 ft | 384 kts | 242° |
| 2026-05-08 19:05 | 37.12837 | -110.34796 | 33900 ft | 384 kts | 243° |
| 2026-05-08 19:05 | 37.10007 | -110.40479 | 33901 ft | 385 kts | 242° |
| 2026-05-08 19:06 | 37.07194 | -110.46183 | 33899 ft | 385 kts | 242° |
| 2026-05-08 19:06 | 37.04370 | -110.51876 | 33900 ft | 385 kts | 242° |
| 2026-05-08 19:07 | 37.01543 | -110.57572 | 33896 ft | 385 kts | 242° |
| 2026-05-08 19:07 | 36.98713 | -110.63267 | 33907 ft | 385 kts | 242° |
| 2026-05-08 19:08 | 36.95879 | -110.68954 | 33911 ft | 385 kts | 242° |
| 2026-05-08 19:08 | 36.93049 | -110.74628 | 33911 ft | 385 kts | 242° |
| 2026-05-08 19:09 | 36.90213 | -110.80301 | 33908 ft | 385 kts | 242° |
| 2026-05-08 19:09 | 36.87374 | -110.85973 | 33904 ft | 385 kts | 242° |
| 2026-05-08 19:10 | 36.84533 | -110.91639 | 33898 ft | 385 kts | 242° |
| 2026-05-08 19:10 | 36.81706 | -110.97269 | 33900 ft | 386 kts | 242° |
| 2026-05-08 19:11 | 36.78852 | -111.02939 | 33893 ft | 386 kts | 242° |
| 2026-05-08 19:11 | 36.75995 | -111.08609 | 33906 ft | 386 kts | 242° |
| 2026-05-08 19:12 | 36.73133 | -111.14275 | 33913 ft | 386 kts | 242° |
| 2026-05-08 19:12 | 36.70268 | -111.19940 | 33935 ft | 386 kts | 242° |
| 2026-05-08 19:13 | 36.67401 | -111.25601 | 33938 ft | 386 kts | 242° |
| 2026-05-08 19:13 | 36.64530 | -111.31260 | 33932 ft | 387 kts | 242° |
| 2026-05-08 19:14 | 36.61655 | -111.36917 | 33925 ft | 387 kts | 242° |
| 2026-05-08 19:14 | 36.58778 | -111.42571 | 33914 ft | 387 kts | 242° |
| 2026-05-08 19:15 | 36.55894 | -111.48223 | 33902 ft | 387 kts | 242° |
| 2026-05-08 19:15 | 36.53009 | -111.53870 | 33910 ft | 387 kts | 242° |
| 2026-05-08 19:16 | 36.50123 | -111.59511 | 33911 ft | 387 kts | 241° |
| 2026-05-08 19:16 | 36.47233 | -111.65152 | 33911 ft | 387 kts | 241° |
| 2026-05-08 19:17 | 36.44340 | -111.70786 | 33912 ft | 387 kts | 241° |
| 2026-05-08 19:17 | 36.41445 | -111.76416 | 33914 ft | 387 kts | 241° |
| 2026-05-08 19:18 | 36.38545 | -111.82045 | 33933 ft | 387 kts | 241° |
| 2026-05-08 19:18 | 36.35644 | -111.87669 | 33933 ft | 387 kts | 241° |
| 2026-05-08 19:19 | 36.32740 | -111.93289 | 33934 ft | 387 kts | 241° |
| 2026-05-08 19:19 | 36.29827 | -111.98914 | 33956 ft | 388 kts | 241° |
| 2026-05-08 19:20 | 36.26933 | -112.04497 | 33985 ft | 388 kts | 241° |
| 2026-05-08 19:20 | 36.24016 | -112.10112 | 34032 ft | 387 kts | 241° |
| 2026-05-08 19:21 | 36.21099 | -112.15723 | 34054 ft | 387 kts | 240° |
| 2026-05-08 19:21 | 36.18178 | -112.21324 | 34087 ft | 387 kts | 240° |
| 2026-05-08 19:22 | 36.15256 | -112.26926 | 34096 ft | 387 kts | 240° |
| 2026-05-08 19:22 | 36.12330 | -112.32522 | 34099 ft | 387 kts | 240° |
| 2026-05-08 19:23 | 36.09404 | -112.38110 | 34085 ft | 387 kts | 240° |
| 2026-05-08 19:23 | 36.06347 | -112.43594 | 34067 ft | 387 kts | 238° |
| 2026-05-08 19:24 | 36.03236 | -112.49021 | 34028 ft | 387 kts | 238° |
| 2026-05-08 19:24 | 36.00115 | -112.54442 | 33968 ft | 387 kts | 237° |
| 2026-05-08 19:25 | 35.96993 | -112.59860 | 33960 ft | 387 kts | 237° |
| 2026-05-08 19:25 | 35.93868 | -112.65275 | 33959 ft | 387 kts | 237° |
| 2026-05-08 19:26 | 35.90741 | -112.70681 | 33960 ft | 387 kts | 237° |
| 2026-05-08 19:26 | 35.87614 | -112.76080 | 33954 ft | 387 kts | 237° |
| 2026-05-08 19:27 | 35.84487 | -112.81472 | 33955 ft | 386 kts | 237° |
| 2026-05-08 19:27 | 35.81380 | -112.86819 | 33956 ft | 386 kts | 237° |
| 2026-05-08 19:28 | 35.78255 | -112.92191 | 33956 ft | 386 kts | 237° |
| 2026-05-08 19:28 | 35.75129 | -112.97557 | 33956 ft | 386 kts | 237° |
| 2026-05-08 19:29 | 35.72000 | -113.02920 | 33949 ft | 386 kts | 237° |
| 2026-05-08 19:29 | 35.68870 | -113.08274 | 33948 ft | 385 kts | 237° |
| 2026-05-08 19:30 | 35.65737 | -113.13624 | 33932 ft | 385 kts | 237° |
| 2026-05-08 19:30 | 35.62610 | -113.18960 | 33933 ft | 384 kts | 237° |
| 2026-05-08 19:31 | 35.59481 | -113.24288 | 33916 ft | 384 kts | 237° |
| 2026-05-08 19:31 | 35.56351 | -113.29611 | 33931 ft | 384 kts | 237° |
| 2026-05-08 19:32 | 35.53220 | -113.34926 | 33922 ft | 384 kts | 237° |
| 2026-05-08 19:32 | 35.50084 | -113.40242 | 33912 ft | 384 kts | 237° |
| 2026-05-08 19:33 | 35.46947 | -113.45553 | 33901 ft | 384 kts | 236° |
| 2026-05-08 19:33 | 35.43808 | -113.50857 | 33894 ft | 384 kts | 237° |
| 2026-05-08 19:34 | 35.40666 | -113.56159 | 33896 ft | 384 kts | 236° |
| 2026-05-08 19:34 | 35.37522 | -113.61458 | 33933 ft | 385 kts | 236° |
| 2026-05-08 19:35 | 35.34371 | -113.66758 | 33959 ft | 385 kts | 236° |
| 2026-05-08 19:35 | 35.31220 | -113.72053 | 33992 ft | 385 kts | 236° |
| 2026-05-08 19:36 | 35.28071 | -113.77335 | 34017 ft | 384 kts | 236° |
| 2026-05-08 19:36 | 35.24920 | -113.82610 | 34047 ft | 384 kts | 236° |
| 2026-05-08 19:37 | 35.21789 | -113.87848 | 34054 ft | 384 kts | 236° |
| 2026-05-08 19:37 | 35.18635 | -113.93114 | 34051 ft | 384 kts | 236° |
| 2026-05-08 19:38 | 35.15475 | -113.98381 | 33864 ft | 384 kts | 236° |
| 2026-05-08 19:38 | 35.12311 | -114.03649 | 33866 ft | 384 kts | 236° |
| 2026-05-08 19:39 | 35.09146 | -114.08913 | 33860 ft | 385 kts | 236° |
| 2026-05-08 19:39 | 35.05975 | -114.14172 | 33849 ft | 384 kts | 236° |
| 2026-05-08 19:40 | 35.02806 | -114.19425 | 33849 ft | 384 kts | 236° |
| 2026-05-08 19:40 | 34.99638 | -114.24668 | 33844 ft | 384 kts | 236° |
| 2026-05-08 19:41 | 34.96548 | -114.29961 | 33835 ft | 381 kts | 242° |
| 2026-05-08 19:41 | 34.93976 | -114.35607 | 33829 ft | 381 kts | 242° |
| 2026-05-08 19:42 | 34.91360 | -114.41226 | 33868 ft | 381 kts | 242° |
| 2026-05-08 19:42 | 34.88760 | -114.46852 | 33884 ft | 381 kts | 242° |
| 2026-05-08 19:43 | 34.86593 | -114.51519 | 33896 ft | 381 kts | 242° |
| 2026-05-08 19:43 | 34.83987 | -114.57129 | 33911 ft | 381 kts | 242° |
| 2026-05-08 19:44 | 34.81398 | -114.62691 | 33911 ft | 381 kts | 242° |
| 2026-05-08 19:44 | 34.78786 | -114.68293 | 33911 ft | 381 kts | 242° |
| 2026-05-08 19:45 | 34.76172 | -114.73890 | 33910 ft | 381 kts | 242° |
| 2026-05-08 19:45 | 34.73134 | -114.79165 | 33896 ft | 382 kts | 234° |
| 2026-05-08 19:46 | 34.69925 | -114.84307 | 33884 ft | 382 kts | 234° |
| 2026-05-08 19:46 | 34.65099 | -114.92016 | 33864 ft | 382 kts | 234° |
| 2026-05-08 19:47 | 34.61879 | -114.97153 | 33850 ft | 382 kts | 234° |
| 2026-05-08 19:47 | 34.58655 | -115.02285 | 33852 ft | 382 kts | 234° |
| 2026-05-08 19:48 | 34.55435 | -115.07410 | 33851 ft | 382 kts | 234° |
| 2026-05-08 19:48 | 34.52214 | -115.12524 | 33856 ft | 381 kts | 234° |
| 2026-05-08 19:49 | 34.48994 | -115.17632 | 33858 ft | 381 kts | 235° |
| 2026-05-08 19:49 | 34.45768 | -115.22740 | 33857 ft | 381 kts | 235° |
| 2026-05-08 19:50 | 34.42543 | -115.27839 | 33867 ft | 381 kts | 234° |
| 2026-05-08 19:50 | 34.39336 | -115.32906 | 33868 ft | 381 kts | 235° |
| 2026-05-08 19:51 | 34.36107 | -115.37996 | 33869 ft | 381 kts | 234° |
| 2026-05-08 19:51 | 34.32874 | -115.43087 | 33876 ft | 381 kts | 234° |
| 2026-05-08 19:52 | 34.29638 | -115.48175 | 33875 ft | 381 kts | 234° |
| 2026-05-08 19:52 | 34.26400 | -115.53259 | 33879 ft | 381 kts | 234° |
| 2026-05-08 19:53 | 34.23160 | -115.58341 | 33890 ft | 382 kts | 234° |
| 2026-05-08 19:53 | 34.19916 | -115.63420 | 33889 ft | 382 kts | 234° |
| 2026-05-08 19:54 | 34.17022 | -115.68747 | 33900 ft | 379 kts | 248° |
| 2026-05-08 19:54 | 34.15809 | -115.74888 | 33900 ft | 377 kts | 265° |
| 2026-05-08 19:55 | 34.15205 | -115.81178 | 33932 ft | 377 kts | 264° |
| 2026-05-08 19:55 | 34.14599 | -115.87470 | 33954 ft | 378 kts | 264° |
| 2026-05-08 19:56 | 34.13986 | -115.93765 | 33977 ft | 378 kts | 264° |
| 2026-05-08 19:56 | 34.13369 | -116.00066 | 33991 ft | 378 kts | 264° |
| 2026-05-08 19:57 | 34.12749 | -116.06411 | 33519 ft | 390 kts | 264° |
| 2026-05-08 19:57 | 34.12427 | -116.09687 | 33001 ft | 391 kts | 264° |
| 2026-05-08 19:57 | 34.12107 | -116.12921 | 32491 ft | 385 kts | 264° |
| 2026-05-08 19:58 | 34.11793 | -116.16104 | 31988 ft | 379 kts | 264° |
| 2026-05-08 19:58 | 34.11482 | -116.19244 | 31492 ft | 374 kts | 264° |
| 2026-05-08 19:58 | 34.11175 | -116.22339 | 31003 ft | 370 kts | 264° |
| 2026-05-08 19:58 | 34.10870 | -116.25405 | 30446 ft | 366 kts | 264° |
| 2026-05-08 19:59 | 34.10567 | -116.28435 | 29958 ft | 362 kts | 264° |
| 2026-05-08 19:59 | 34.10266 | -116.31439 | 29408 ft | 359 kts | 264° |
| 2026-05-08 19:59 | 34.09948 | -116.34410 | 28871 ft | 356 kts | 264° |
| 2026-05-08 19:59 | 34.09624 | -116.37354 | 28337 ft | 353 kts | 264° |
| 2026-05-08 20:00 | 34.09316 | -116.40244 | 27822 ft | 350 kts | 264° |
| 2026-05-08 20:00 | 34.09008 | -116.43148 | 27308 ft | 348 kts | 264° |
| 2026-05-08 20:00 | 34.08699 | -116.46035 | 26804 ft | 346 kts | 264° |
| 2026-05-08 20:00 | 34.08389 | -116.48899 | 26312 ft | 344 kts | 264° |
| 2026-05-08 20:01 | 34.08082 | -116.51749 | 25807 ft | 342 kts | 264° |
| 2026-05-08 20:01 | 34.07771 | -116.54640 | 25212 ft | 344 kts | 264° |
| 2026-05-08 20:01 | 34.07465 | -116.57459 | 24630 ft | 344 kts | 263° |
| 2026-05-08 20:01 | 34.07187 | -116.60329 | 24062 ft | 344 kts | 265° |
| 2026-05-08 20:02 | 34.06931 | -116.63195 | 23517 ft | 344 kts | 264° |
| 2026-05-08 20:02 | 34.06647 | -116.66057 | 22864 ft | 343 kts | 264° |
| 2026-05-08 20:02 | 34.06376 | -116.68914 | 22219 ft | 343 kts | 265° |
| 2026-05-08 20:02 | 34.06117 | -116.71769 | 21591 ft | 342 kts | 265° |
| 2026-05-08 20:03 | 34.05855 | -116.74611 | 20975 ft | 340 kts | 264° |
| 2026-05-08 20:03 | 34.05587 | -116.77441 | 20395 ft | 339 kts | 264° |
| 2026-05-08 20:03 | 34.05322 | -116.80260 | 19808 ft | 338 kts | 264° |
| 2026-05-08 20:03 | 34.05058 | -116.83073 | 19273 ft | 335 kts | 265° |
| 2026-05-08 20:04 | 34.04800 | -116.85818 | 18996 ft | 324 kts | 265° |
| 2026-05-08 20:04 | 34.04547 | -116.88483 | 18731 ft | 316 kts | 264° |
| 2026-05-08 20:04 | 34.04217 | -116.91068 | 18441 ft | 309 kts | 261° |
| 2026-05-08 20:04 | 34.03887 | -116.93600 | 18147 ft | 303 kts | 262° |
| 2026-05-08 20:05 | 34.03578 | -116.96082 | 17857 ft | 297 kts | 262° |
| 2026-05-08 20:05 | 34.03263 | -116.98528 | 17527 ft | 294 kts | 262° |
| 2026-05-08 20:05 | 34.02945 | -117.00946 | 17252 ft | 290 kts | 262° |
| 2026-05-08 20:05 | 34.02635 | -117.03324 | 16991 ft | 285 kts | 262° |
| 2026-05-08 20:06 | 34.02348 | -117.05672 | 16725 ft | 281 kts | 263° |
| 2026-05-08 20:06 | 34.02088 | -117.07995 | 16468 ft | 278 kts | 263° |
| 2026-05-08 20:06 | 34.01819 | -117.10291 | 16215 ft | 275 kts | 263° |
| 2026-05-08 20:06 | 34.01545 | -117.12563 | 15966 ft | 273 kts | 263° |
| 2026-05-08 20:07 | 34.01275 | -117.14850 | 15716 ft | 280 kts | 263° |
| 2026-05-08 20:07 | 34.00995 | -117.17209 | 15456 ft | 288 kts | 262° |
| 2026-05-08 20:07 | 34.00705 | -117.19630 | 15219 ft | 295 kts | 263° |
| 2026-05-08 20:07 | 34.00409 | -117.22104 | 14944 ft | 301 kts | 263° |
| 2026-05-08 20:08 | 34.00110 | -117.24615 | 14667 ft | 305 kts | 263° |
| 2026-05-08 20:08 | 33.99805 | -117.27161 | 14385 ft | 308 kts | 263° |
| 2026-05-08 20:08 | 33.99496 | -117.29726 | 14098 ft | 311 kts | 262° |
| 2026-05-08 20:08 | 33.99186 | -117.32308 | 13804 ft | 312 kts | 262° |
| 2026-05-08 20:09 | 33.98884 | -117.34902 | 13498 ft | 313 kts | 263° |
| 2026-05-08 20:09 | 33.98583 | -117.37494 | 13206 ft | 312 kts | 263° |
| 2026-05-08 20:09 | 33.98281 | -117.40047 | 12920 ft | 312 kts | 262° |
| 2026-05-08 20:09 | 33.97976 | -117.42632 | 12636 ft | 311 kts | 262° |
| 2026-05-08 20:10 | 33.97673 | -117.45197 | 12352 ft | 311 kts | 262° |
| 2026-05-08 20:10 | 33.97404 | -117.47787 | 12061 ft | 309 kts | 266° |
| 2026-05-08 20:10 | 33.97563 | -117.50339 | 11966 ft | 303 kts | 281° |
| 2026-05-08 20:10 | 33.98152 | -117.52772 | 11962 ft | 302 kts | 287° |
| 2026-05-08 20:11 | 33.98757 | -117.55189 | 11973 ft | 301 kts | 285° |
| 2026-05-08 20:11 | 33.99318 | -117.57621 | 11973 ft | 301 kts | 285° |
| 2026-05-08 20:11 | 33.99886 | -117.60049 | 11974 ft | 301 kts | 285° |
| 2026-05-08 20:11 | 34.00461 | -117.62474 | 11974 ft | 301 kts | 285° |
| 2026-05-08 20:12 | 34.01034 | -117.64903 | 11973 ft | 301 kts | 285° |
| 2026-05-08 20:12 | 34.01606 | -117.67331 | 11973 ft | 301 kts | 285° |
| 2026-05-08 20:12 | 34.02062 | -117.69785 | 11971 ft | 301 kts | 276° |
| 2026-05-08 20:12 | 34.02025 | -117.72298 | 11968 ft | 300 kts | 263° |
| 2026-05-08 20:13 | 34.01729 | -117.74786 | 11988 ft | 300 kts | 262° |
| 2026-05-08 20:13 | 34.01468 | -117.77261 | 11943 ft | 295 kts | 263° |
| 2026-05-08 20:13 | 34.01243 | -117.79722 | 11668 ft | 296 kts | 263° |
| 2026-05-08 20:13 | 34.01006 | -117.82212 | 11187 ft | 303 kts | 263° |
| 2026-05-08 20:14 | 34.00751 | -117.84787 | 10485 ft | 315 kts | 262° |
| 2026-05-08 20:14 | 34.00491 | -117.87429 | 9783 ft | 315 kts | 262° |
| 2026-05-08 20:14 | 34.00241 | -117.89998 | 9035 ft | 302 kts | 262° |
| 2026-05-08 20:14 | 33.99997 | -117.92473 | 8295 ft | 293 kts | 263° |
| 2026-05-08 20:15 | 33.99761 | -117.94878 | 7577 ft | 286 kts | 263° |
| 2026-05-08 20:15 | 33.99531 | -117.97229 | 6876 ft | 280 kts | 264° |
| 2026-05-08 20:15 | 33.99304 | -117.99527 | 6227 ft | 273 kts | 264° |
| 2026-05-08 20:15 | 33.99081 | -118.01767 | 5597 ft | 266 kts | 264° |
| 2026-05-08 20:16 | 33.98863 | -118.03955 | 4967 ft | 261 kts | 263° |
| 2026-05-08 20:16 | 33.98650 | -118.06087 | 4597 ft | 248 kts | 264° |
| 2026-05-08 20:16 | 33.98449 | -118.08098 | 4380 ft | 238 kts | 265° |
| 2026-05-08 20:16 | 33.98255 | -118.10054 | 4161 ft | 233 kts | 264° |
| 2026-05-08 20:17 | 33.98064 | -118.11969 | 3947 ft | 229 kts | 264° |
| 2026-05-08 20:17 | 33.97895 | -118.13859 | 3738 ft | 225 kts | 265° |
| 2026-05-08 20:17 | 33.97735 | -118.15698 | 3530 ft | 223 kts | 265° |
| 2026-05-08 20:17 | 33.97532 | -118.17537 | 3320 ft | 220 kts | 264° |
| 2026-05-08 20:18 | 33.97351 | -118.19361 | 3108 ft | 219 kts | 265° |
| 2026-05-08 20:18 | 33.97166 | -118.21195 | 2900 ft | 217 kts | 263° |
| 2026-05-08 20:18 | 33.96971 | -118.22964 | 2700 ft | 215 kts | 264° |
| 2026-05-08 20:18 | 33.96809 | -118.24739 | 2499 ft | 210 kts | 263° |
| 2026-05-08 20:19 | 33.96613 | -118.26454 | 2300 ft | 204 kts | 262° |
| 2026-05-08 20:19 | 33.96456 | -118.28118 | 2180 ft | 194 kts | 263° |
| 2026-05-08 20:19 | 33.96294 | -118.29676 | 1873 ft | 171 kts | 261° |
| 2026-05-08 20:19 | 33.96156 | -118.30970 | 1652 ft | 145 kts | 262° |
| 2026-05-08 20:20 | 33.96045 | -118.32103 | 1466 ft | 131 kts | 259° |
| 2026-05-08 20:20 | 33.95929 | -118.33168 | 1299 ft | 125 kts | 261° |
| 2026-05-08 20:20 | 33.95834 | -118.34179 | 1131 ft | 119 kts | 259° |
| 2026-05-08 20:20 | 33.95723 | -118.35158 | 982 ft | 121 kts | 263° |
| 2026-05-08 20:21 | 33.95626 | -118.36196 | 810 ft | 126 kts | 259° |
| 2026-05-08 20:21 | 33.95517 | -118.37237 | 662 ft | 120 kts | 262° |
| 2026-05-08 20:21 | 33.95437 | -118.38205 | 492 ft | 111 kts | 262° |
| 2026-05-08 20:21 | 33.95338 | -118.39079 | 332 ft | 102 kts | 261° |
| 2026-05-08 20:22 | 33.95286 | -118.39942 | 179 ft | 108 kts | 256° |
| 2026-05-08 20:22 | 33.95153 | -118.40747 | 134 ft | 84 kts | 267° |
| 2026-05-08 20:22 | 33.95100 | -118.41336 | 121 ft | 59 kts | 252° |
| 2026-05-08 20:22 | 33.95065 | -118.41608 | 121 ft | 37 kts | 262° |
| 2026-05-08 20:23 | 33.95031 | -118.41953 | 120 ft | 29 kts | 263° |
| 2026-05-08 20:23 | 33.95007 | -118.42176 | 121 ft | 19 kts | 262° |
| 2026-05-08 20:23 | 33.94999 | -118.42278 | 121 ft | 12 kts | 262° |
| 2026-05-08 20:23 | 33.94983 | -118.42384 | 121 ft | 10 kts | 257° |
| 2026-05-08 20:24 | 33.94959 | -118.42484 | 117 ft | 13 kts | 250° |
| 2026-05-08 20:24 | 33.94928 | -118.42561 | 121 ft | 12 kts | 241° |
| 2026-05-08 20:24 | 33.94876 | -118.42647 | 121 ft | 12 kts | 230° |
| 2026-05-08 20:24 | 33.94818 | -118.42717 | 120 ft | 12 kts | 217° |
| 2026-05-08 20:25 | 33.94753 | -118.42763 | 121 ft | 10 kts | 197° |
| 2026-05-08 20:25 | 33.94695 | -118.42780 | 121 ft | 9 kts | 185° |
| 2026-05-08 20:25 | 33.94639 | -118.42778 | 121 ft | 9 kts | 174° |
| 2026-05-08 20:25 | 33.94572 | -118.42769 | 121 ft | 11 kts | 174° |
| 2026-05-08 20:26 | 33.94518 | -118.42760 | 121 ft | 4 kts | 171° |
| 2026-05-08 20:26 | 33.94480 | -118.42763 | 121 ft | 6 kts | 232° |
| 2026-05-08 20:26 | 33.94470 | -118.42813 | 119 ft | 7 kts | 266° |
| 2026-05-08 20:26 | 33.94465 | -118.42873 | 121 ft | 7 kts | 262° |
| 2026-05-08 20:27 | 33.94464 | -118.42883 | 121 ft | 0 kts | 263° |